createdAt,value
2018-05-16T00:00:18.277Z,19.82
2018-05-16T00:01:18.220Z,19.83
2018-05-16T00:02:18.225Z,19.81
2018-05-16T00:03:18.144Z,19.81
2018-05-16T00:04:18.249Z,19.81
2018-05-16T00:05:18.179Z,19.81
2018-05-16T00:06:18.186Z,19.8
2018-05-16T00:07:18.219Z,19.81
2018-05-16T00:08:18.315Z,19.8
2018-05-16T00:09:18.162Z,19.8
2018-05-16T00:10:18.150Z,19.81
2018-05-16T00:11:18.352Z,19.81
2018-05-16T00:12:18.154Z,19.79
2018-05-16T00:13:18.132Z,19.81
2018-05-16T00:14:18.099Z,19.81
2018-05-16T00:15:18.256Z,19.8
2018-05-16T00:16:18.157Z,19.8
2018-05-16T00:17:18.179Z,19.8
2018-05-16T00:18:18.158Z,19.79
2018-05-16T00:19:18.420Z,19.8
2018-05-16T00:20:18.176Z,19.8
2018-05-16T00:21:18.173Z,19.8
2018-05-16T00:22:18.296Z,19.8
2018-05-16T00:23:18.138Z,19.8
2018-05-16T00:24:18.294Z,19.8
2018-05-16T00:25:18.310Z,19.79
2018-05-16T00:26:18.072Z,19.8
2018-05-16T00:27:18.280Z,19.8
2018-05-16T00:28:18.559Z,19.81
2018-05-16T00:29:18.198Z,19.8
2018-05-16T00:30:18.301Z,19.8
2018-05-16T00:31:18.078Z,19.8
2018-05-16T00:32:18.155Z,19.8
2018-05-16T00:33:18.401Z,19.8
2018-05-16T00:34:18.357Z,19.8
2018-05-16T00:35:18.193Z,19.82
2018-05-16T00:36:18.255Z,19.8
2018-05-16T00:37:18.272Z,19.8
2018-05-16T00:38:18.291Z,19.8
2018-05-16T00:39:18.102Z,19.79
2018-05-16T00:40:18.228Z,19.79
2018-05-16T00:41:18.146Z,19.8
2018-05-16T00:42:18.119Z,19.78
2018-05-16T00:43:18.163Z,19.8
2018-05-16T00:44:18.275Z,19.79
2018-05-16T00:45:18.238Z,19.79
2018-05-16T00:46:18.158Z,19.79
2018-05-16T00:47:18.347Z,19.8
2018-05-16T00:48:18.279Z,19.79
2018-05-16T00:49:18.182Z,19.8
2018-05-16T00:50:18.083Z,19.8
2018-05-16T00:51:18.147Z,19.79
2018-05-16T00:52:18.340Z,19.78
2018-05-16T00:53:18.277Z,19.79
2018-05-16T00:54:18.380Z,19.79
2018-05-16T00:55:18.316Z,19.79
2018-05-16T00:56:18.181Z,19.79
2018-05-16T00:57:18.014Z,19.79
2018-05-16T00:58:18.242Z,19.79
2018-05-16T00:59:18.102Z,19.79
2018-05-16T01:00:18.219Z,19.78
2018-05-16T01:01:18.351Z,19.79
2018-05-16T01:02:18.289Z,19.79
2018-05-16T01:03:18.200Z,19.78
2018-05-16T01:04:18.281Z,19.8
2018-05-16T01:05:18.375Z,19.79
2018-05-16T01:06:18.181Z,19.78
2018-05-16T01:07:18.185Z,19.79
2018-05-16T01:08:18.093Z,19.79
2018-05-16T01:09:18.228Z,19.78
2018-05-16T01:10:18.088Z,19.79
2018-05-16T01:11:18.270Z,19.79
2018-05-16T01:12:18.171Z,19.78
2018-05-16T01:13:18.172Z,19.78
2018-05-16T01:14:18.480Z,19.79
2018-05-16T01:15:18.407Z,19.78
2018-05-16T01:16:18.310Z,19.78
2018-05-16T01:17:18.131Z,19.79
2018-05-16T01:18:18.344Z,19.77
2018-05-16T01:19:18.285Z,19.78
2018-05-16T01:20:18.129Z,19.78
2018-05-16T01:21:18.044Z,19.78
2018-05-16T01:22:18.252Z,19.78
2018-05-16T01:23:18.279Z,19.78
2018-05-16T01:24:18.221Z,19.76
2018-05-16T01:25:18.299Z,19.77
2018-05-16T01:26:18.016Z,19.77
2018-05-16T01:27:18.150Z,19.76
2018-05-16T01:28:18.325Z,19.77
2018-05-16T01:29:18.278Z,19.78
2018-05-16T01:30:18.209Z,19.77
2018-05-16T01:31:18.376Z,19.76
2018-05-16T01:32:18.199Z,19.76
2018-05-16T01:33:18.321Z,19.76
2018-05-16T01:34:18.237Z,19.76
2018-05-16T01:35:18.306Z,19.78
2018-05-16T01:36:18.137Z,19.77
2018-05-16T01:37:18.213Z,19.77
2018-05-16T01:38:18.123Z,19.77
2018-05-16T01:39:18.227Z,19.76
2018-05-16T01:40:18.300Z,19.77
2018-05-16T01:41:18.320Z,19.76
2018-05-16T01:42:18.184Z,19.76
2018-05-16T01:43:18.198Z,19.76
2018-05-16T01:44:18.253Z,19.77
2018-05-16T01:45:18.210Z,19.75
2018-05-16T01:46:18.081Z,19.77
2018-05-16T01:47:18.203Z,19.76
2018-05-16T01:48:18.096Z,19.77
2018-05-16T01:49:18.278Z,19.77
2018-05-16T01:50:18.195Z,19.76
2018-05-16T01:51:18.184Z,19.76
2018-05-16T01:52:18.256Z,19.75
2018-05-16T01:53:18.265Z,19.77
2018-05-16T01:54:18.324Z,19.75
2018-05-16T01:55:18.399Z,19.76
2018-05-16T01:56:18.312Z,19.76
2018-05-16T01:57:18.052Z,19.74
2018-05-16T01:58:18.206Z,19.76
2018-05-16T01:59:18.233Z,19.76
2018-05-16T02:00:18.188Z,19.75
2018-05-16T02:01:18.322Z,19.76
2018-05-16T02:02:18.118Z,19.77
2018-05-16T02:03:18.342Z,19.74
2018-05-16T02:04:18.346Z,19.75
2018-05-16T02:05:18.119Z,19.76
2018-05-16T02:06:18.088Z,19.75
2018-05-16T02:07:18.008Z,19.75
2018-05-16T02:08:18.219Z,19.75
2018-05-16T02:09:18.338Z,19.75
2018-05-16T02:10:18.309Z,19.76
2018-05-16T02:11:18.177Z,19.77
2018-05-16T02:12:18.184Z,19.75
2018-05-16T02:13:18.234Z,19.76
2018-05-16T02:14:18.286Z,19.77
2018-05-16T02:15:18.262Z,19.75
2018-05-16T02:16:18.172Z,19.77
2018-05-16T02:17:18.118Z,19.75
2018-05-16T02:18:18.236Z,19.76
2018-05-16T02:19:18.260Z,19.76
2018-05-16T02:20:18.303Z,19.76
2018-05-16T02:21:18.280Z,19.75
2018-05-16T02:22:18.202Z,19.76
2018-05-16T02:23:18.132Z,19.76
2018-05-16T02:24:18.277Z,19.74
2018-05-16T02:25:18.190Z,19.75
2018-05-16T02:26:18.315Z,19.75
2018-05-16T02:27:18.200Z,19.74
2018-05-16T02:28:18.060Z,19.75
2018-05-16T02:29:18.248Z,19.75
2018-05-16T02:30:18.338Z,19.75
2018-05-16T02:31:18.213Z,19.76
2018-05-16T02:32:18.183Z,19.76
2018-05-16T02:33:18.215Z,19.75
2018-05-16T02:34:18.126Z,19.75
2018-05-16T02:35:18.242Z,19.75
2018-05-16T02:36:18.360Z,19.75
2018-05-16T02:37:18.482Z,19.75
2018-05-16T02:38:18.053Z,19.75
2018-05-16T02:39:18.112Z,19.75
2018-05-16T02:40:18.307Z,19.74
2018-05-16T02:41:18.230Z,19.75
2018-05-16T02:42:18.220Z,19.74
2018-05-16T02:43:18.145Z,19.75
2018-05-16T02:44:18.151Z,19.74
2018-05-16T02:45:18.189Z,19.74
2018-05-16T02:46:18.280Z,19.74
2018-05-16T02:47:18.194Z,19.74
2018-05-16T02:48:18.162Z,19.74
2018-05-16T02:49:18.343Z,19.75
2018-05-16T02:50:49.406Z,19.75
2018-05-16T02:51:18.174Z,19.75
2018-05-16T02:52:18.252Z,19.74
2018-05-16T02:53:18.330Z,19.75
2018-05-16T02:54:18.221Z,19.73
2018-05-16T02:55:18.127Z,19.75
2018-05-16T02:56:18.103Z,19.74
2018-05-16T02:57:18.129Z,19.73
2018-05-16T02:58:18.248Z,19.74
2018-05-16T02:59:18.307Z,19.74
2018-05-16T03:00:18.204Z,19.72
2018-05-16T03:01:18.082Z,19.73
2018-05-16T03:02:18.270Z,19.73
2018-05-16T03:03:18.384Z,19.73
2018-05-16T03:04:18.366Z,19.73
2018-05-16T03:05:18.170Z,19.74
2018-05-16T03:06:18.025Z,19.74
2018-05-16T03:07:18.165Z,19.75
2018-05-16T03:08:18.240Z,19.75
2018-05-16T03:09:18.202Z,19.73
2018-05-16T03:10:18.302Z,19.73
2018-05-16T03:11:18.014Z,19.74
2018-05-16T03:12:18.478Z,19.73
2018-05-16T03:13:18.319Z,19.74
2018-05-16T03:14:18.199Z,19.73
2018-05-16T03:15:18.114Z,19.74
2018-05-16T03:16:18.151Z,19.73
2018-05-16T03:17:18.238Z,19.74
2018-05-16T03:18:18.178Z,19.73
2018-05-16T03:19:18.265Z,19.74
2018-05-16T03:20:18.317Z,19.73
2018-05-16T03:21:18.191Z,19.73
2018-05-16T03:22:18.328Z,19.74
2018-05-16T03:23:18.306Z,19.74
2018-05-16T03:24:18.317Z,19.74
2018-05-16T03:25:18.076Z,19.74
2018-05-16T03:26:18.305Z,19.73
2018-05-16T03:27:17.985Z,19.73
2018-05-16T03:28:18.217Z,19.72
2018-05-16T03:29:18.300Z,19.73
2018-05-16T03:30:18.311Z,19.73
2018-05-16T03:31:18.267Z,19.74
2018-05-16T03:32:18.271Z,19.73
2018-05-16T03:33:18.365Z,19.72
2018-05-16T03:34:18.035Z,19.73
2018-05-16T03:35:18.105Z,19.74
2018-05-16T03:36:18.228Z,19.72
2018-05-16T03:37:18.135Z,19.72
2018-05-16T03:38:18.281Z,19.73
2018-05-16T03:39:18.184Z,19.72
2018-05-16T03:40:18.088Z,19.73
2018-05-16T03:41:18.204Z,19.73
2018-05-16T03:42:18.175Z,19.73
2018-05-16T03:43:28.163Z,19.74
2018-05-16T03:44:18.192Z,19.73
2018-05-16T03:45:18.265Z,19.72
2018-05-16T03:46:18.235Z,19.74
2018-05-16T03:47:18.255Z,19.74
2018-05-16T03:48:18.240Z,19.72
2018-05-16T03:49:18.297Z,19.73
2018-05-16T03:50:18.074Z,19.72
2018-05-16T03:51:18.187Z,19.71
2018-05-16T03:52:17.964Z,19.73
2018-05-16T03:53:18.165Z,19.73
2018-05-16T03:54:18.101Z,19.72
2018-05-16T03:55:18.286Z,19.71
2018-05-16T03:56:18.196Z,19.73
2018-05-16T03:57:18.357Z,19.73
2018-05-16T03:58:18.222Z,19.74
2018-05-16T03:59:18.100Z,19.73
2018-05-16T04:00:18.235Z,19.71
2018-05-16T04:01:18.152Z,19.71
2018-05-16T04:02:18.078Z,19.72
2018-05-16T04:03:18.131Z,19.71
2018-05-16T04:04:18.299Z,19.72
2018-05-16T04:05:18.107Z,19.73
2018-05-16T04:06:18.232Z,19.72
2018-05-16T04:07:18.075Z,19.73
2018-05-16T04:08:18.088Z,19.73
2018-05-16T04:09:18.095Z,19.72
2018-05-16T04:10:18.100Z,19.72
2018-05-16T04:11:18.112Z,19.72
2018-05-16T04:12:18.187Z,19.72
2018-05-16T04:13:18.071Z,19.72
2018-05-16T04:14:18.166Z,19.72
2018-05-16T04:15:17.997Z,19.72
2018-05-16T04:16:18.153Z,19.72
2018-05-16T04:17:18.001Z,19.72
2018-05-16T04:18:18.143Z,19.71
2018-05-16T04:19:18.258Z,19.72
2018-05-16T04:20:18.216Z,19.72
2018-05-16T04:21:18.267Z,19.71
2018-05-16T04:22:18.132Z,19.72
2018-05-16T04:23:18.310Z,19.72
2018-05-16T04:24:18.063Z,19.72
2018-05-16T04:25:18.371Z,19.72
2018-05-16T04:26:18.027Z,19.73
2018-05-16T04:27:18.300Z,19.71
2018-05-16T04:28:18.235Z,19.7
2018-05-16T04:29:18.017Z,19.73
2018-05-16T04:30:18.061Z,19.71
2018-05-16T04:31:18.118Z,19.71
2018-05-16T04:32:18.221Z,19.72
2018-05-16T04:33:18.146Z,19.72
2018-05-16T04:34:18.181Z,19.73
2018-05-16T04:35:18.036Z,19.73
2018-05-16T04:36:18.074Z,19.72
2018-05-16T04:37:18.083Z,19.71
2018-05-16T04:38:18.196Z,19.73
2018-05-16T04:39:18.206Z,19.72
2018-05-16T04:40:18.184Z,19.72
2018-05-16T04:41:18.280Z,19.72
2018-05-16T04:42:18.194Z,19.72
2018-05-16T04:43:18.099Z,19.72
2018-05-16T04:44:18.046Z,19.71
2018-05-16T04:45:18.233Z,19.71
2018-05-16T04:46:18.151Z,19.72
2018-05-16T04:47:18.092Z,19.72
2018-05-16T04:48:18.311Z,19.71
2018-05-16T04:49:18.101Z,19.72
2018-05-16T04:50:18.273Z,19.72
2018-05-16T04:51:18.408Z,19.71
2018-05-16T04:52:18.360Z,19.72
2018-05-16T04:53:18.042Z,19.72
2018-05-16T04:54:18.326Z,19.72
2018-05-16T04:55:18.333Z,19.72
2018-05-16T04:56:18.331Z,19.72
2018-05-16T04:57:18.130Z,19.72
2018-05-16T04:58:18.084Z,19.72
2018-05-16T04:59:18.271Z,19.72
2018-05-16T05:00:18.086Z,19.71
2018-05-16T05:01:18.196Z,19.72
2018-05-16T05:02:18.051Z,19.71
2018-05-16T05:03:18.307Z,19.72
2018-05-16T05:04:18.231Z,19.73
2018-05-16T05:05:18.212Z,19.72
2018-05-16T05:06:18.080Z,19.72
2018-05-16T05:07:18.260Z,19.72
2018-05-16T05:08:18.228Z,19.72
2018-05-16T05:09:18.196Z,19.72
2018-05-16T05:10:18.336Z,19.73
2018-05-16T05:11:18.269Z,19.71
2018-05-16T05:12:18.155Z,19.71
2018-05-16T05:13:18.244Z,19.72
2018-05-16T05:14:18.078Z,19.71
2018-05-16T05:15:18.269Z,19.71
2018-05-16T05:16:18.199Z,19.71
2018-05-16T05:17:18.188Z,19.72
2018-05-16T05:18:18.394Z,19.72
2018-05-16T05:19:18.056Z,19.73
2018-05-16T05:20:18.046Z,19.72
2018-05-16T05:21:18.151Z,19.7
2018-05-16T05:22:18.251Z,19.71
2018-05-16T05:23:18.092Z,19.72
2018-05-16T05:24:18.049Z,19.72
2018-05-16T05:25:18.074Z,19.71
2018-05-16T05:26:18.507Z,19.72
2018-05-16T05:27:18.104Z,19.71
2018-05-16T05:28:18.186Z,19.71
2018-05-16T05:29:18.289Z,19.71
2018-05-16T05:30:18.419Z,19.71
2018-05-16T05:31:18.071Z,19.73
2018-05-16T05:32:18.163Z,19.72
2018-05-16T05:33:18.232Z,19.72
2018-05-16T05:34:18.163Z,19.72
2018-05-16T05:35:18.071Z,19.72
2018-05-16T05:36:18.100Z,19.71
2018-05-16T05:37:18.105Z,19.72
2018-05-16T05:38:17.998Z,19.72
2018-05-16T05:39:18.172Z,19.72
2018-05-16T05:40:18.315Z,19.72
2018-05-16T05:41:18.036Z,19.72
2018-05-16T05:42:17.935Z,19.72
2018-05-16T05:43:18.393Z,19.72
2018-05-16T05:44:18.108Z,19.72
2018-05-16T05:45:18.063Z,19.72
2018-05-16T05:46:18.151Z,19.71
2018-05-16T05:47:18.051Z,19.74
2018-05-16T05:48:18.178Z,19.73
2018-05-16T05:49:18.398Z,19.72
2018-05-16T05:50:18.084Z,19.72
2018-05-16T05:51:18.151Z,19.71
2018-05-16T05:52:18.262Z,19.72
2018-05-16T05:53:18.121Z,19.73
2018-05-16T05:54:18.037Z,19.71
2018-05-16T05:55:18.329Z,19.72
2018-05-16T05:56:18.152Z,19.72
2018-05-16T05:57:18.180Z,19.72
2018-05-16T05:58:18.142Z,19.72
2018-05-16T05:59:18.245Z,19.73
2018-05-16T06:00:18.044Z,19.72
2018-05-16T06:01:18.240Z,19.72
2018-05-16T06:02:18.056Z,19.73
2018-05-16T06:03:18.179Z,19.71
2018-05-16T06:04:18.175Z,19.72
2018-05-16T06:05:18.065Z,19.72
2018-05-16T06:06:18.073Z,19.73
2018-05-16T06:07:18.228Z,19.73
2018-05-16T06:08:18.127Z,19.73
2018-05-16T06:09:18.278Z,19.72
2018-05-16T06:10:18.211Z,19.72
2018-05-16T06:11:18.327Z,19.73
2018-05-16T06:12:18.241Z,19.72
2018-05-16T06:13:18.136Z,19.72
2018-05-16T06:14:18.002Z,19.73
2018-05-16T06:15:18.012Z,19.73
2018-05-16T06:16:18.160Z,19.73
2018-05-16T06:17:18.064Z,19.72
2018-05-16T06:18:18.081Z,19.72
2018-05-16T06:19:18.042Z,19.72
2018-05-16T06:20:18.162Z,19.72
2018-05-16T06:21:18.281Z,19.72
2018-05-16T06:22:18.107Z,19.72
2018-05-16T06:23:18.027Z,19.72
2018-05-16T06:24:18.207Z,19.72
2018-05-16T06:25:18.283Z,19.73
2018-05-16T06:26:18.171Z,19.73
2018-05-16T06:27:18.253Z,19.72
2018-05-16T06:28:18.275Z,19.73
2018-05-16T06:29:18.090Z,19.73
2018-05-16T06:30:18.114Z,19.71
2018-05-16T06:31:18.097Z,19.73
2018-05-16T06:32:18.014Z,19.73
2018-05-16T06:33:18.254Z,19.72
2018-05-16T06:34:18.179Z,19.73
2018-05-16T06:35:18.234Z,19.73
2018-05-16T06:36:18.023Z,19.72
2018-05-16T06:37:18.166Z,19.73
2018-05-16T06:38:18.131Z,19.73
2018-05-16T06:39:18.251Z,19.73
2018-05-16T06:40:17.851Z,19.73
2018-05-16T06:41:17.975Z,19.73
2018-05-16T06:42:18.307Z,19.73
2018-05-16T06:43:18.119Z,19.72
2018-05-16T06:44:18.201Z,19.72
2018-05-16T06:45:18.265Z,19.71
2018-05-16T06:46:18.108Z,19.73
2018-05-16T06:47:18.289Z,19.73
2018-05-16T06:48:18.178Z,19.72
2018-05-16T06:49:18.172Z,19.72
2018-05-16T06:50:18.008Z,19.72
2018-05-16T06:51:18.166Z,19.71
2018-05-16T06:52:18.114Z,19.73
2018-05-16T06:53:18.029Z,19.72
2018-05-16T06:54:18.076Z,19.72
2018-05-16T06:55:18.414Z,19.71
2018-05-16T06:56:18.003Z,19.71
2018-05-16T06:57:18.106Z,19.71
2018-05-16T06:58:18.240Z,19.72
2018-05-16T06:59:18.019Z,19.73
2018-05-16T07:00:18.243Z,19.72
2018-05-16T07:01:18.136Z,19.72
2018-05-16T07:02:18.088Z,19.72
2018-05-16T07:03:18.025Z,19.72
2018-05-16T07:04:18.259Z,19.72
2018-05-16T07:05:18.092Z,19.72
2018-05-16T07:06:18.077Z,19.72
2018-05-16T07:07:18.081Z,19.73
2018-05-16T07:08:17.956Z,19.73
2018-05-16T07:09:18.054Z,19.72
2018-05-16T07:10:18.166Z,19.72
2018-05-16T07:11:18.273Z,19.73
2018-05-16T07:12:18.155Z,19.72
2018-05-16T07:13:18.312Z,19.72
2018-05-16T07:14:18.083Z,19.72
2018-05-16T07:15:18.238Z,19.72
2018-05-16T07:16:18.075Z,19.72
2018-05-16T07:17:18.046Z,19.73
2018-05-16T07:18:18.077Z,19.72
2018-05-16T07:19:18.321Z,19.72
2018-05-16T07:20:18.220Z,19.72
2018-05-16T07:21:18.031Z,19.72
2018-05-16T07:22:18.253Z,19.72
2018-05-16T07:23:18.055Z,19.73
2018-05-16T07:24:18.021Z,19.71
2018-05-16T07:25:18.188Z,19.72
2018-05-16T07:26:28.229Z,19.72
2018-05-16T07:27:18.073Z,19.71
2018-05-16T07:28:18.210Z,19.73
2018-05-16T07:29:18.186Z,19.72
2018-05-16T07:30:18.260Z,19.71
2018-05-16T07:31:18.120Z,19.72
2018-05-16T07:32:18.260Z,19.71
2018-05-16T07:33:18.237Z,19.71
2018-05-16T07:34:17.961Z,19.71
2018-05-16T07:35:18.159Z,19.72
2018-05-16T07:36:18.345Z,19.72
2018-05-16T07:37:18.168Z,19.72
2018-05-16T07:38:18.004Z,19.72
2018-05-16T07:39:18.083Z,19.71
2018-05-16T07:40:18.135Z,19.73
2018-05-16T07:41:18.104Z,19.73
2018-05-16T07:42:18.094Z,19.72
2018-05-16T07:43:18.207Z,19.73
2018-05-16T07:44:18.221Z,19.71
2018-05-16T07:45:17.983Z,19.71
2018-05-16T07:46:18.214Z,19.72
2018-05-16T07:47:18.317Z,19.72
2018-05-16T07:48:18.289Z,19.72
2018-05-16T07:49:18.127Z,19.71
2018-05-16T07:50:17.990Z,19.71
2018-05-16T07:51:18.090Z,19.71
2018-05-16T07:52:18.107Z,19.71
2018-05-16T07:53:18.182Z,19.71
2018-05-16T07:54:18.074Z,19.7
2018-05-16T07:55:18.025Z,19.71
2018-05-16T07:56:18.217Z,19.72
2018-05-16T07:57:18.134Z,19.71
2018-05-16T07:58:18.038Z,19.72
2018-05-16T07:59:18.260Z,19.72
2018-05-16T08:00:18.026Z,19.72
2018-05-16T08:01:18.184Z,19.72
2018-05-16T08:02:18.319Z,19.72
2018-05-16T08:03:18.408Z,19.71
2018-05-16T08:04:18.045Z,19.71
2018-05-16T08:05:18.164Z,19.72
2018-05-16T08:06:18.128Z,19.71
2018-05-16T08:07:18.314Z,19.7
2018-05-16T08:08:18.201Z,19.71
2018-05-16T08:09:18.131Z,19.7
2018-05-16T08:10:17.905Z,19.71
2018-05-16T08:11:17.981Z,19.71
2018-05-16T08:12:18.207Z,19.7
2018-05-16T08:13:18.178Z,19.71
2018-05-16T08:14:18.122Z,19.71
2018-05-16T08:15:17.881Z,19.7
2018-05-16T08:16:18.063Z,19.71
2018-05-16T08:17:18.277Z,19.71
2018-05-16T08:18:18.014Z,19.71
2018-05-16T08:19:18.255Z,19.71
2018-05-16T08:20:18.239Z,19.71
2018-05-16T08:21:18.238Z,19.71
2018-05-16T08:22:18.194Z,19.71
2018-05-16T08:23:18.198Z,19.7
2018-05-16T08:24:17.967Z,19.7
2018-05-16T08:25:17.973Z,19.71
2018-05-16T08:26:18.112Z,19.7
2018-05-16T08:27:17.910Z,19.7
2018-05-16T08:28:18.297Z,19.7
2018-05-16T08:29:18.305Z,19.7
2018-05-16T08:30:18.264Z,19.7
2018-05-16T08:31:18.077Z,19.7
2018-05-16T08:32:18.139Z,19.71
2018-05-16T08:33:18.165Z,19.7
2018-05-16T08:34:18.254Z,19.71
2018-05-16T08:35:18.289Z,19.7
2018-05-16T08:36:28.117Z,19.7
2018-05-16T08:37:18.179Z,19.71
2018-05-16T08:38:18.062Z,19.7
2018-05-16T08:39:18.040Z,19.7
2018-05-16T08:40:18.027Z,19.71
2018-05-16T08:41:18.061Z,19.7
2018-05-16T08:42:18.053Z,19.7
2018-05-16T08:43:18.112Z,19.71
2018-05-16T08:44:18.039Z,19.71
2018-05-16T08:45:18.337Z,19.7
2018-05-16T08:46:18.101Z,19.71
2018-05-16T08:47:18.402Z,19.71
2018-05-16T08:48:18.200Z,19.7
2018-05-16T08:49:18.318Z,19.71
2018-05-16T08:50:17.991Z,19.71
2018-05-16T08:51:18.271Z,19.7
2018-05-16T08:52:18.004Z,19.71
2018-05-16T08:53:17.989Z,19.71
2018-05-16T08:54:18.179Z,19.7
2018-05-16T08:55:18.058Z,19.71
2018-05-16T08:56:18.093Z,19.71
2018-05-16T08:57:18.099Z,19.7
2018-05-16T08:58:18.208Z,19.69
2018-05-16T08:59:18.366Z,19.7
2018-05-16T09:00:18.088Z,19.7
2018-05-16T09:01:18.166Z,19.71
2018-05-16T09:02:19.696Z,19.71
2018-05-16T09:03:18.504Z,19.7
2018-05-16T09:04:18.550Z,19.71
2018-05-16T09:05:18.525Z,19.7
2018-05-16T09:06:18.457Z,19.7
2018-05-16T09:07:18.079Z,19.69
2018-05-16T09:08:18.600Z,19.7
2018-05-16T09:09:18.619Z,19.7
2018-05-16T09:10:18.023Z,19.7
2018-05-16T09:11:18.467Z,19.7
2018-05-16T09:12:19.660Z,19.7
2018-05-16T09:13:18.610Z,19.7
2018-05-16T09:14:18.191Z,19.7
2018-05-16T09:15:18.521Z,19.7
2018-05-16T09:16:19.841Z,19.7
2018-05-16T09:17:18.624Z,19.7
2018-05-16T09:18:18.566Z,19.68
2018-05-16T09:19:18.014Z,19.69
2018-05-16T09:20:18.073Z,19.7
2018-05-16T09:21:18.120Z,19.68
2018-05-16T09:22:20.146Z,19.68
2018-05-16T09:23:18.557Z,19.7
2018-05-16T09:24:18.354Z,19.69
2018-05-16T09:25:18.254Z,19.69
2018-05-16T09:26:18.177Z,19.69
2018-05-16T09:27:18.771Z,19.69
2018-05-16T09:28:18.345Z,19.7
2018-05-16T09:29:18.385Z,19.7
2018-05-16T09:30:19.587Z,19.69
2018-05-16T09:31:19.691Z,19.7
2018-05-16T09:32:18.155Z,19.69
2018-05-16T09:33:18.795Z,19.69
2018-05-16T09:34:18.421Z,19.7
2018-05-16T09:35:18.574Z,19.69
2018-05-16T09:36:18.527Z,19.68
2018-05-16T09:37:18.497Z,19.69
2018-05-16T09:38:18.665Z,19.69
2018-05-16T09:39:19.805Z,19.68
2018-05-16T09:40:18.708Z,19.69
2018-05-16T09:41:18.304Z,19.69
2018-05-16T09:42:18.158Z,19.68
2018-05-16T09:43:18.072Z,19.69
2018-05-16T09:44:18.555Z,19.69
2018-05-16T09:45:18.572Z,19.67
2018-05-16T09:46:19.952Z,19.69
2018-05-16T09:47:18.011Z,19.69
2018-05-16T09:48:18.791Z,19.69
2018-05-16T09:49:18.202Z,19.68
2018-05-16T09:50:18.206Z,19.68
2018-05-16T09:51:18.103Z,19.69
2018-05-16T09:52:18.140Z,19.69
2018-05-16T09:53:18.730Z,19.68
2018-05-16T09:54:18.213Z,19.68
2018-05-16T09:55:17.925Z,19.64
2018-05-16T09:56:18.368Z,19.66
2018-05-16T09:57:18.197Z,19.65
2018-05-16T09:58:18.083Z,19.71
2018-05-16T09:59:19.879Z,19.73
2018-05-16T10:00:18.608Z,19.72
2018-05-16T10:01:18.500Z,19.73
2018-05-16T10:02:18.505Z,19.73
2018-05-16T10:03:18.490Z,19.72
2018-05-16T10:04:18.651Z,19.73
2018-05-16T10:05:20.017Z,19.73
2018-05-16T10:06:20.496Z,19.66
2018-05-16T10:07:18.817Z,19.72
2018-05-16T10:08:18.574Z,19.74
2018-05-16T10:09:18.760Z,19.75
2018-05-16T10:10:20.079Z,19.77
2018-05-16T10:11:20.031Z,19.78
2018-05-16T10:12:18.743Z,19.79
2018-05-16T10:13:19.598Z,19.81
2018-05-16T10:14:18.742Z,19.81
2018-05-16T10:15:18.441Z,19.81
2018-05-16T10:16:18.544Z,19.83
2018-05-16T10:17:18.414Z,19.83
2018-05-16T10:18:18.509Z,19.83
2018-05-16T10:19:18.755Z,19.85
2018-05-16T10:20:20.275Z,19.86
2018-05-16T10:21:18.536Z,19.86
2018-05-16T10:22:18.623Z,19.85
2018-05-16T10:23:19.535Z,19.85
2018-05-16T10:24:18.502Z,19.85
2018-05-16T10:25:18.328Z,19.87
2018-05-16T10:26:18.523Z,19.88
2018-05-16T10:27:18.670Z,19.86
2018-05-16T10:28:19.935Z,19.87
2018-05-16T10:29:19.980Z,19.86
2018-05-16T10:30:18.815Z,19.86
2018-05-16T10:31:18.717Z,19.87
2018-05-16T10:32:18.697Z,19.86
2018-05-16T10:33:18.714Z,19.86
2018-05-16T10:34:18.759Z,19.86
2018-05-16T10:35:20.072Z,19.86
2018-05-16T10:36:20.126Z,19.85
2018-05-16T10:37:18.841Z,19.85
2018-05-16T10:38:18.613Z,19.85
2018-05-16T10:39:18.762Z,19.84
2018-05-16T10:40:19.580Z,19.84
2018-05-16T10:41:20.110Z,19.83
2018-05-16T10:42:20.039Z,19.81
2018-05-16T10:43:18.901Z,19.81
2018-05-16T10:44:18.756Z,19.81
2018-05-16T10:45:18.614Z,19.8
2018-05-16T10:46:18.615Z,19.81
2018-05-16T10:47:18.715Z,19.79
2018-05-16T10:48:18.792Z,19.78
2018-05-16T10:49:18.551Z,19.78
2018-05-16T10:50:18.434Z,19.77
2018-05-16T10:51:18.643Z,19.76
2018-05-16T10:52:18.470Z,19.77
2018-05-16T10:53:20.103Z,19.77
2018-05-16T10:54:20.037Z,19.76
2018-05-16T10:55:18.816Z,19.76
2018-05-16T10:56:19.496Z,19.77
2018-05-16T10:57:18.614Z,19.75
2018-05-16T10:58:18.738Z,19.76
2018-05-16T10:59:18.726Z,19.76
2018-05-16T11:00:18.689Z,19.75
2018-05-16T11:01:18.084Z,19.75
2018-05-16T11:02:18.182Z,19.75
2018-05-16T11:03:18.235Z,19.74
2018-05-16T11:04:18.159Z,19.75
2018-05-16T11:05:18.101Z,19.75
2018-05-16T11:06:18.025Z,19.75
2018-05-16T11:07:18.006Z,19.75
2018-05-16T11:08:17.988Z,19.75
2018-05-16T11:09:18.095Z,19.75
2018-05-16T11:10:17.952Z,19.74
2018-05-16T11:11:18.207Z,19.75
2018-05-16T11:12:18.243Z,19.75
2018-05-16T11:13:18.231Z,19.74
2018-05-16T11:14:18.192Z,19.74
2018-05-16T11:15:17.871Z,19.74
2018-05-16T11:16:18.089Z,19.74
2018-05-16T11:17:18.149Z,19.74
2018-05-16T11:18:18.114Z,19.73
2018-05-16T11:19:18.184Z,19.73
2018-05-16T11:20:18.168Z,19.73
2018-05-16T11:21:18.118Z,19.73
2018-05-16T11:22:18.073Z,19.74
2018-05-16T11:23:18.043Z,19.73
2018-05-16T11:24:18.190Z,19.73
2018-05-16T11:25:18.311Z,19.73
2018-05-16T11:26:18.136Z,19.73
2018-05-16T11:27:18.060Z,19.72
2018-05-16T11:28:18.005Z,19.72
2018-05-16T11:29:18.072Z,19.73
2018-05-16T11:30:17.954Z,19.72
2018-05-16T11:31:17.946Z,19.73
2018-05-16T11:32:18.066Z,19.73
2018-05-16T11:33:17.995Z,19.73
2018-05-16T11:34:18.333Z,19.73
2018-05-16T11:35:18.013Z,19.72
2018-05-16T11:36:18.177Z,19.72
2018-05-16T11:37:17.945Z,19.71
2018-05-16T11:38:18.157Z,19.72
2018-05-16T11:39:18.067Z,19.71
2018-05-16T11:40:18.198Z,19.73
2018-05-16T11:41:18.183Z,19.72
2018-05-16T11:42:17.966Z,19.72
2018-05-16T11:43:18.107Z,19.73
2018-05-16T11:44:18.099Z,19.72
2018-05-16T11:45:18.113Z,19.71
2018-05-16T11:46:18.117Z,19.72
2018-05-16T11:47:18.264Z,19.74
2018-05-16T11:48:28.053Z,19.73
2018-05-16T11:49:17.965Z,19.75
2018-05-16T11:50:18.126Z,19.8
2018-05-16T11:51:17.972Z,19.78
2018-05-16T11:52:18.234Z,19.77
2018-05-16T11:53:17.998Z,19.8
2018-05-16T11:54:18.164Z,19.81
2018-05-16T11:55:18.146Z,19.83
2018-05-16T11:56:18.151Z,19.85
2018-05-16T11:57:18.181Z,19.83
2018-05-16T11:58:18.026Z,19.85
2018-05-16T11:59:18.111Z,19.87
2018-05-16T12:00:18.192Z,19.87
2018-05-16T12:01:18.301Z,19.89
2018-05-16T12:02:18.202Z,19.9
2018-05-16T12:03:18.140Z,19.91
2018-05-16T12:04:20.514Z,19.93
2018-05-16T12:05:18.270Z,19.94
2018-05-16T12:06:18.184Z,19.94
2018-05-16T12:07:18.226Z,19.95
2018-05-16T12:08:18.152Z,19.95
2018-05-16T12:09:18.228Z,19.96
2018-05-16T12:10:20.513Z,19.97
2018-05-16T12:11:18.278Z,19.97
2018-05-16T12:12:20.156Z,19.96
2018-05-16T12:13:28.104Z,19.98
2018-05-16T12:14:18.159Z,19.98
2018-05-16T12:15:18.282Z,20
2018-05-16T12:16:18.170Z,20
2018-05-16T12:17:18.245Z,19.99
2018-05-16T12:18:18.159Z,19.98
2018-05-16T12:19:18.150Z,20
2018-05-16T12:20:18.305Z,19.98
2018-05-16T12:21:18.202Z,19.97
2018-05-16T12:22:18.263Z,19.97
2018-05-16T12:23:18.296Z,19.97
2018-05-16T12:24:18.278Z,19.96
2018-05-16T12:25:18.345Z,19.96
2018-05-16T12:26:18.153Z,19.96
2018-05-16T12:27:18.240Z,19.94
2018-05-16T12:28:18.180Z,19.96
2018-05-16T12:29:17.909Z,19.95
2018-05-16T12:30:18.198Z,19.95
2018-05-16T12:31:17.924Z,19.94
2018-05-16T12:32:18.049Z,19.95
2018-05-16T12:33:17.940Z,19.94
2018-05-16T12:34:17.925Z,19.94
2018-05-16T12:35:18.077Z,19.95
2018-05-16T12:36:18.048Z,19.94
2018-05-16T12:37:17.867Z,19.95
2018-05-16T12:38:17.817Z,19.95
2018-05-16T12:39:18.048Z,19.93
2018-05-16T12:40:18.007Z,19.94
2018-05-16T12:41:18.075Z,19.94
2018-05-16T12:42:18.049Z,19.93
2018-05-16T12:43:18.103Z,19.95
2018-05-16T12:44:18.171Z,19.93
2018-05-16T12:45:18.029Z,19.93
2018-05-16T12:46:17.953Z,19.93
2018-05-16T12:47:17.963Z,19.92
2018-05-16T12:48:18.032Z,19.89
2018-05-16T12:49:18.251Z,19.93
2018-05-16T12:50:18.082Z,19.93
2018-05-16T12:51:18.096Z,19.95
2018-05-16T12:52:17.982Z,19.95
2018-05-16T12:53:18.177Z,19.98
2018-05-16T12:54:18.012Z,19.95
2018-05-16T12:55:18.037Z,19.96